Aeroporto :
LOGIN :

Iscrizione | Disclaimer

   EN    FR    IT 

 










Sommario :    VFR   VFR Marginale   IFR   IFR Intensivo   IFR Molto Intensivo
Visibilità : 
Base nubi : 
>= 8 km
>= 3000ft
5 / 8 km
1000 / 3000 ft
1500m / 5 km
500 / 1000 ft
800 / 1500m
200 / 500 ft
< 800m
< 200 ft
Simboli :   Temporali  Nebbia  Neve Forte  Precipitazioni Forti  Vento > 20 kt
SIGMETs :   Varie  Temporali  Ghiacco  Turbolenza  Onda orograficha  Ceneri Vulcaniche






- Altitudine del aeroporto : 472 ft
- Codice IATA : GME


UMGG - Gomel

ULTIMO METAR :
  • 030400Z 13006MPS 5000 BR OVC007 M03/M04 Q1028 R10/D NOSIG

METARs OBSOLETI :
  • 030330Z 13006MPS 5000 BR OVC007 M03/M04 Q1028 R10/CLRD// NOSIG
  • 030300Z 13006MPS 5000 BR OVC007 M03/M04 Q1028 R10/D NOSIG
  • 030200Z 13005G08MPS 5000 BR OVC007 M02/M03 Q1028 R10/D NOSIG

TAF TAF UMGG
Valido dal 03 a 00 ore il 04 a 00 ore UTC


022254Z 0300/0324 13006MPS 6000 BKN007
TEMPO 0300/0306 15006MPS 1200 SN BR OVC004
TEMPO 0306/0315 15006G11MPS 2000 BR BKN005
TEMPO 0315/0324 15005MPS 1200 SN BR OVC004



MetMap, La meteo Aeronautica in un colpo d'occhio ! - Copyright ORBIFLY Dicembre 2007 - Disclaimer

ORBIFLY MET'MAP TEAM :

Programmazione e sviluppo : Alexandra Zaïnal
Concezione : Baudouin d'Aumeries
Aiuto per la programmazione : Marc-Olivier Méhu
Supporto tecnico e logistico : Manuel Goepfert
Aiuto per la traduzione : Arnaldo La Scala

Contatto : metmap@orbifly.com




FONTI E CREDITI :

   NOAA